Time;durP1;ratioP1;P1;durP2;ratioP2;P2;SDS_P1;SDS_P2;PMS_P1;PMS_P2;Temp;Humidity;BMP_temperature;BMP_pressure;BME280_temperature;BME280_humidity;BME280_pressure;Samples;Min_cycle;Max_cycle;Signal;HPM_P1;HPM_P2
2023/08/21 00:01:05;;;;;;;389.67;285.80;;;;;;;;;;4925503;28;20098;-55
2023/08/21 00:03:30;;;;;;;332.57;278.73;;;;;;;;;;4929355;28;20051;-56
2023/08/21 00:05:55;;;;;;;240.53;177.70;;;;;;;;;;4926406;28;20043;-54
2023/08/21 00:08:21;;;;;;;306.60;187.27;;;;;;;;;;4927735;28;20519;-56
2023/08/21 00:10:46;;;;;;;275.87;188.77;;;;;;;;;;4926337;28;20046;-55
2023/08/21 00:13:11;;;;;;;362.73;313.77;;;;;;;;;;4929573;28;20070;-57
2023/08/21 00:15:37;;;;;;;395.23;326.37;;;;;;;;;;4925334;28;20338;-56
2023/08/21 00:18:02;;;;;;;425.08;382.23;;;;;;;;;;4928401;28;20058;-56
2023/08/21 00:20:28;;;;;;;287.42;231.27;;;;;;;;;;4924348;28;20094;-55
2023/08/21 00:22:53;;;;;;;297.63;160.97;;;;;;;;;;4927518;28;20027;-55
2023/08/21 00:25:18;;;;;;;245.77;174.33;;;;;;;;;;4926819;28;20812;-55
2023/08/21 00:27:43;;;;;;;297.73;201.27;;;;;;;;;;4927567;28;20247;-54
2023/08/21 00:30:09;;;;;;;340.93;209.83;;;;;;;;;;4924476;28;20036;-54
2023/08/21 00:32:35;;;;;;;330.40;260.35;;;;;;;;;;4927966;28;20370;-55
2023/08/21 00:35:00;;;;;;;363.98;300.77;;;;;;;;;;4928826;28;20035;-55
2023/08/21 00:37:25;;;;;;;286.10;194.13;;;;;;;;;;4927700;28;20039;-54
2023/08/21 00:39:50;;;;;;;302.87;200.50;;;;;;;;;;4929657;28;20102;-55
2023/08/21 00:42:16;;;;;;;334.45;289.33;;;;;;;;;;4931043;28;20179;-55
2023/08/21 00:44:41;;;;;;;417.97;346.90;;;;;;;;;;4931884;28;20384;-55
2023/08/21 00:47:06;;;;;;;311.17;240.80;;;;;;;;;;4931339;28;20040;-55
2023/08/21 00:49:32;;;;;;;259.88;178.00;;;;;;;;;;4929444;28;20261;-55
2023/08/21 00:51:58;;;;;;;379.42;304.90;;;;;;;;;;4930599;28;20039;-57
2023/08/21 00:54:23;;;;;;;332.42;266.00;;;;;;;;;;4947293;28;20046;-56
2023/08/21 00:56:50;;;;;;;413.40;368.40;;;;;;;;;;4930810;28;20093;-55
2023/08/21 00:59:15;;;;;;;439.77;350.15;;;;;;;;;;4929902;28;20776;-54
2023/08/21 01:01:41;;;;;;;255.97;166.67;;;;;;;;;;4931577;28;20032;-55
2023/08/21 01:04:07;;;;;;;412.42;335.40;;;;;;;;;;4932026;28;20063;-55
2023/08/21 01:06:32;;;;;;;303.52;182.70;;;;;;;;;;4930952;28;20109;-54
2023/08/21 01:09:07;;;;;;;263.20;193.47;;;;;;;;;;4932106;28;20039;-54
2023/08/21 01:11:54;;;;;;;263.70;191.48;;;;;;;;;;4930325;28;20331;-55
2023/08/21 01:14:33;;;;;;;329.40;259.60;;;;;;;;;;4931300;28;20062;-54
2023/08/21 01:16:59;;;;;;;348.38;299.55;;;;;;;;;;4933533;28;20492;-55
2023/08/21 01:19:28;;;;;;;274.27;196.88;;;;;;;;;;4929565;28;20034;-54
2023/08/21 01:21:53;;;;;;;472.73;372.27;;;;;;;;;;4927291;28;20540;-57
2023/08/21 01:24:19;;;;;;;359.80;268.80;;;;;;;;;;4931748;28;20039;-54
2023/08/21 01:26:44;;;;;;;389.70;311.73;;;;;;;;;;4930663;28;20761;-54
2023/08/21 01:29:10;;;;;;;346.13;257.77;;;;;;;;;;4928978;28;20054;-55
2023/08/21 01:31:37;;;;;;;386.07;331.70;;;;;;;;;;4929386;28;20078;-55
2023/08/21 01:34:04;;;;;;;371.58;318.65;;;;;;;;;;4931039;28;20543;-54
2023/08/21 01:36:30;;;;;;;414.75;286.15;;;;;;;;;;4928298;28;20131;-53
2023/08/21 01:38:56;;;;;;;375.45;304.38;;;;;;;;;;4928167;28;20118;-55
2023/08/21 01:41:23;;;;;;;292.10;185.38;;;;;;;;;;4929626;28;20531;-56
2023/08/21 01:43:48;;;;;;;428.90;317.88;;;;;;;;;;4931766;28;20099;-54
2023/08/21 01:46:13;;;;;;;287.17;191.10;;;;;;;;;;4929963;28;20039;-55
2023/08/21 01:48:39;;;;;;;267.57;191.03;;;;;;;;;;4928954;28;20031;-56
2023/08/21 01:51:04;;;;;;;315.90;200.27;;;;;;;;;;4927762;28;20644;-56
2023/08/21 01:53:30;;;;;;;263.50;198.70;;;;;;;;;;4929009;28;20079;-57
2023/08/21 01:55:55;;;;;;;307.20;221.80;;;;;;;;;;4929623;28;20067;-56
2023/08/21 01:58:20;;;;;;;295.13;198.77;;;;;;;;;;4930095;28;20400;-54
2023/08/21 02:00:46;;;;;;;349.30;284.57;;;;;;;;;;4930595;28;20820;-55
2023/08/21 02:03:12;;;;;;;339.33;278.90;;;;;;;;;;4932949;28;20043;-56
2023/08/21 02:05:38;;;;;;;401.27;342.63;;;;;;;;;;4931198;28;20035;-56
2023/08/21 02:08:04;;;;;;;298.33;265.73;;;;;;;;;;4932207;28;20305;-56
2023/08/21 02:10:29;;;;;;;309.77;246.00;;;;;;;;;;4929279;28;20378;-55
2023/08/21 02:12:54;;;;;;;273.73;237.17;;;;;;;;;;4930365;28;20027;-55
2023/08/21 02:15:21;;;;;;;335.97;274.90;;;;;;;;;;4931468;28;20034;-56
2023/08/21 02:17:47;;;;;;;369.92;275.73;;;;;;;;;;4930502;28;20027;-55
2023/08/21 02:20:12;;;;;;;405.83;327.00;;;;;;;;;;4929812;28;20020;-54
2023/08/21 02:22:37;;;;;;;392.40;338.38;;;;;;;;;;4929246;28;20031;-54
2023/08/21 02:25:03;;;;;;;417.03;313.67;;;;;;;;;;4929825;28;20023;-54
2023/08/21 02:27:28;;;;;;;368.38;278.75;;;;;;;;;;4929113;28;20312;-54
2023/08/21 02:29:53;;;;;;;369.37;296.87;;;;;;;;;;4927979;28;20019;-55
2023/08/21 02:32:18;;;;;;;404.02;334.98;;;;;;;;;;4916526;28;20046;-56
2023/08/21 02:34:44;;;;;;;318.63;227.43;;;;;;;;;;4930956;28;20337;-56
2023/08/21 02:37:09;;;;;;;339.20;259.23;;;;;;;;;;4930770;28;20074;-54
2023/08/21 02:39:34;;;;;;;365.73;301.35;;;;;;;;;;4928230;28;20024;-54
2023/08/21 02:41:59;;;;;;;293.17;223.07;;;;;;;;;;4927971;28;20693;-53
2023/08/21 02:44:25;;;;;;;363.07;291.27;;;;;;;;;;4930363;28;20267;-55
2023/08/21 02:46:50;;;;;;;399.65;304.38;;;;;;;;;;4929244;28;20032;-54
2023/08/21 02:49:15;;;;;;;345.03;253.03;;;;;;;;;;4930068;28;20340;-54
2023/08/21 02:51:40;;;;;;;329.03;253.13;;;;;;;;;;4927618;28;20453;-55
2023/08/21 02:54:06;;;;;;;377.30;288.03;;;;;;;;;;4928550;28;20364;-53
2023/08/21 02:56:31;;;;;;;352.42;274.92;;;;;;;;;;4929973;28;20119;-55
2023/08/21 02:58:56;;;;;;;375.02;334.08;;;;;;;;;;4931508;28;20487;-54
2023/08/21 03:01:21;;;;;;;482.37;432.77;;;;;;;;;;4928296;28;20481;-54
2023/08/21 03:03:47;;;;;;;431.40;367.70;;;;;;;;;;4927956;28;20474;-54
2023/08/21 03:06:12;;;;;;;438.77;391.37;;;;;;;;;;4926859;28;20118;-54
2023/08/21 03:08:37;;;;;;;386.73;328.30;;;;;;;;;;4928562;28;20262;-53
2023/08/21 03:11:02;;;;;;;319.60;255.20;;;;;;;;;;4928053;28;20043;-54
2023/08/21 03:13:28;;;;;;;286.35;205.88;;;;;;;;;;4929894;28;20019;-54
2023/08/21 03:15:53;;;;;;;412.83;354.17;;;;;;;;;;4928391;28;20296;-53
2023/08/21 03:18:18;;;;;;;363.53;279.47;;;;;;;;;;4929458;28;20274;-54
2023/08/21 03:20:44;;;;;;;345.13;274.70;;;;;;;;;;4925970;28;20271;-53
2023/08/21 03:23:09;;;;;;;329.27;233.25;;;;;;;;;;4928484;28;20768;-54
2023/08/21 03:25:35;;;;;;;355.67;279.00;;;;;;;;;;4927962;28;20573;-55
2023/08/21 03:28:00;;;;;;;388.10;335.93;;;;;;;;;;4927480;28;20023;-54
2023/08/21 03:30:25;;;;;;;392.67;299.90;;;;;;;;;;4928386;28;20705;-55
2023/08/21 03:32:50;;;;;;;511.20;456.47;;;;;;;;;;4929725;28;20291;-54
2023/08/21 03:35:16;;;;;;;377.37;332.00;;;;;;;;;;4930002;28;20082;-54
2023/08/21 03:37:41;;;;;;;355.23;291.03;;;;;;;;;;4932541;28;20315;-56
2023/08/21 03:40:06;;;;;;;478.63;428.43;;;;;;;;;;4929644;28;20266;-58
2023/08/21 03:42:32;;;;;;;387.77;343.40;;;;;;;;;;4928213;28;20314;-55
2023/08/21 03:44:57;;;;;;;414.77;342.77;;;;;;;;;;4929684;28;20041;-56
2023/08/21 03:47:22;;;;;;;327.93;230.50;;;;;;;;;;4928220;28;20700;-55
2023/08/21 03:49:48;;;;;;;375.70;309.40;;;;;;;;;;4927809;28;20247;-56
2023/08/21 03:52:13;;;;;;;446.42;360.88;;;;;;;;;;4928046;28;20426;-57
2023/08/21 03:54:38;;;;;;;343.33;293.05;;;;;;;;;;4929186;28;20422;-55
2023/08/21 03:57:04;;;;;;;388.23;306.30;;;;;;;;;;4928983;28;20090;-55
2023/08/21 03:59:29;;;;;;;338.02;283.10;;;;;;;;;;4925134;28;20526;-56
2023/08/21 04:01:55;;;;;;;446.30;322.37;;;;;;;;;;4923390;28;20055;-56
2023/08/21 04:04:20;;;;;;;396.13;329.83;;;;;;;;;;4925651;28;20641;-56
2023/08/21 04:06:45;;;;;;;337.37;256.90;;;;;;;;;;4925024;28;20417;-55
2023/08/21 04:09:10;;;;;;;411.90;318.63;;;;;;;;;;4926113;28;20365;-58
2023/08/21 04:11:36;;;;;;;313.00;253.90;;;;;;;;;;4925738;28;20303;-55
2023/08/21 04:14:01;;;;;;;607.72;542.63;;;;;;;;;;4926840;28;20656;-56
2023/08/21 04:16:28;;;;;;;378.88;301.27;;;;;;;;;;4925027;28;20227;-54
2023/08/21 04:18:53;;;;;;;359.58;286.83;;;;;;;;;;4926438;28;20394;-56
2023/08/21 04:21:18;;;;;;;352.17;299.42;;;;;;;;;;4925519;28;20087;-54
2023/08/21 04:23:44;;;;;;;358.73;291.50;;;;;;;;;;4924943;28;20019;-56
2023/08/21 04:26:09;;;;;;;484.75;409.05;;;;;;;;;;4922851;28;20272;-56
2023/08/21 04:28:35;;;;;;;330.67;234.00;;;;;;;;;;4923939;28;20083;-54
2023/08/21 04:31:03;;;;;;;451.58;324.92;;;;;;;;;;4922974;28;20470;-55
2023/08/21 04:33:29;;;;;;;376.30;328.00;;;;;;;;;;4925321;28;20296;-54
2023/08/21 04:35:54;;;;;;;370.52;265.42;;;;;;;;;;4924426;28;20066;-54
2023/08/21 04:38:19;;;;;;;349.43;288.00;;;;;;;;;;4925233;28;20027;-56
2023/08/21 04:40:45;;;;;;;364.97;298.87;;;;;;;;;;4925960;28;20299;-55
2023/08/21 04:43:10;;;;;;;430.63;299.20;;;;;;;;;;4926020;28;20302;-54
2023/08/21 04:45:37;;;;;;;382.07;330.20;;;;;;;;;;4925221;28;20275;-54
2023/08/21 04:48:03;;;;;;;437.83;309.52;;;;;;;;;;4923908;28;20298;-54
2023/08/21 04:50:28;;;;;;;398.50;327.85;;;;;;;;;;4924726;28;20481;-55
2023/08/21 04:52:53;;;;;;;330.47;249.67;;;;;;;;;;4924945;28;20047;-55
2023/08/21 04:55:18;;;;;;;306.43;233.63;;;;;;;;;;4926963;28;20020;-56
2023/08/21 04:57:44;;;;;;;361.35;272.08;;;;;;;;;;4926226;28;20027;-55
2023/08/21 05:00:09;;;;;;;460.08;307.50;;;;;;;;;;4923052;28;20039;-54
2023/08/21 05:02:34;;;;;;;385.17;342.90;;;;;;;;;;4927403;28;20035;-54
2023/08/21 05:05:00;;;;;;;497.42;347.77;;;;;;;;;;4926834;28;20101;-55
2023/08/21 05:07:26;;;;;;;358.73;305.05;;;;;;;;;;4926557;28;20081;-54
2023/08/21 05:09:52;;;;;;;438.90;365.00;;;;;;;;;;4932658;28;20051;-55
2023/08/21 05:12:17;;;;;;;439.02;364.95;;;;;;;;;;4923640;28;20130;-54
2023/08/21 05:14:42;;;;;;;460.20;411.65;;;;;;;;;;4926496;28;20090;-55
2023/08/21 05:17:08;;;;;;;447.73;321.23;;;;;;;;;;4923705;28;20603;-57
2023/08/21 05:19:33;;;;;;;373.83;279.17;;;;;;;;;;4922936;28;20260;-57
2023/08/21 05:21:58;;;;;;;472.77;408.23;;;;;;;;;;4922253;28;20501;-57
2023/08/21 05:24:23;;;;;;;350.77;302.63;;;;;;;;;;4927490;28;20285;-55
2023/08/21 05:26:49;;;;;;;457.48;407.90;;;;;;;;;;4930519;28;20039;-55
2023/08/21 05:29:14;;;;;;;356.03;273.60;;;;;;;;;;4926264;28;21626;-56
2023/08/21 05:31:39;;;;;;;318.73;242.23;;;;;;;;;;4927419;28;20773;-55
2023/08/21 05:34:04;;;;;;;398.27;221.00;;;;;;;;;;4927439;28;20421;-55
2023/08/21 05:36:29;;;;;;;249.47;194.03;;;;;;;;;;4928417;28;20362;-56
2023/08/21 05:38:56;;;;;;;282.77;216.10;;;;;;;;;;4928311;28;20026;-55
2023/08/21 05:41:21;;;;;;;321.63;253.43;;;;;;;;;;4927713;28;20041;-56
2023/08/21 05:43:47;;;;;;;406.87;362.30;;;;;;;;;;4927917;28;20027;-56
2023/08/21 05:46:12;;;;;;;463.98;341.83;;;;;;;;;;4927817;28;20044;-55
2023/08/21 05:48:38;;;;;;;314.10;236.70;;;;;;;;;;4929083;28;20401;-55
2023/08/21 05:51:03;;;;;;;334.75;238.10;;;;;;;;;;4924903;28;20093;-55
2023/08/21 05:53:28;;;;;;;297.40;228.43;;;;;;;;;;4927929;28;20426;-55
2023/08/21 05:55:54;;;;;;;298.47;253.10;;;;;;;;;;4925063;28;20564;-54
2023/08/21 05:58:19;;;;;;;344.65;278.48;;;;;;;;;;4928549;28;20386;-55
2023/08/21 06:00:46;;;;;;;342.40;293.05;;;;;;;;;;4926988;28;20402;-55
2023/08/21 06:03:11;;;;;;;421.50;296.00;;;;;;;;;;4940665;28;20091;-56
2023/08/21 06:05:36;;;;;;;366.10;294.42;;;;;;;;;;4927680;28;20497;-56
2023/08/21 06:08:02;;;;;;;382.03;288.70;;;;;;;;;;4926924;28;20048;-55
2023/08/21 06:10:27;;;;;;;337.15;253.18;;;;;;;;;;4928496;28;20407;-55
2023/08/21 06:12:52;;;;;;;343.20;272.33;;;;;;;;;;4927949;28;20411;-55
2023/08/21 06:15:17;;;;;;;292.13;237.07;;;;;;;;;;4925910;28;20716;-54
2023/08/21 06:17:43;;;;;;;296.97;237.73;;;;;;;;;;4926963;28;20142;-55
2023/08/21 06:20:08;;;;;;;396.63;265.07;;;;;;;;;;4926299;28;20285;-56
2023/08/21 06:22:34;;;;;;;337.95;299.42;;;;;;;;;;4928479;28;20416;-54
2023/08/21 06:24:59;;;;;;;316.67;255.25;;;;;;;;;;4926167;28;20062;-57
2023/08/21 06:27:24;;;;;;;333.33;294.33;;;;;;;;;;4927443;28;20272;-56
2023/08/21 06:29:50;;;;;;;368.73;328.10;;;;;;;;;;4926711;28;20377;-57
2023/08/21 06:32:15;;;;;;;423.70;360.23;;;;;;;;;;4926027;28;20476;-56
2023/08/21 06:34:40;;;;;;;420.77;375.80;;;;;;;;;;4927779;28;20121;-55
2023/08/21 06:37:06;;;;;;;360.50;292.00;;;;;;;;;;4926531;28;20983;-57
2023/08/21 06:39:31;;;;;;;347.65;300.02;;;;;;;;;;4927375;28;20024;-56
2023/08/21 06:41:56;;;;;;;323.70;269.87;;;;;;;;;;4927927;28;20040;-57
2023/08/21 06:44:21;;;;;;;346.53;307.97;;;;;;;;;;4927716;28;20273;-58
2023/08/21 06:46:47;;;;;;;359.77;306.97;;;;;;;;;;4928890;28;20350;-57
2023/08/21 06:49:12;;;;;;;469.45;356.08;;;;;;;;;;4927361;28;20295;-56
2023/08/21 06:51:38;;;;;;;410.67;368.20;;;;;;;;;;4925376;28;20138;-56
2023/08/21 06:54:03;;;;;;;287.67;170.60;;;;;;;;;;4927204;28;20956;-58
2023/08/21 06:56:28;;;;;;;533.40;477.90;;;;;;;;;;4926080;28;20074;-55
2023/08/21 06:58:55;;;;;;;396.77;357.07;;;;;;;;;;4929285;28;20260;-57
2023/08/21 07:01:20;;;;;;;460.33;393.08;;;;;;;;;;4924447;28;20069;-57
2023/08/21 07:03:45;;;;;;;404.85;356.67;;;;;;;;;;4928265;28;20471;-56
2023/08/21 07:06:10;;;;;;;446.70;398.40;;;;;;;;;;4926896;28;20142;-55
2023/08/21 07:08:37;;;;;;;455.43;411.07;;;;;;;;;;4932264;28;20022;-56
2023/08/21 07:11:05;;;;;;;444.17;399.35;;;;;;;;;;4928844;28;20043;-57
2023/08/21 07:13:31;;;;;;;570.42;515.50;;;;;;;;;;4931907;28;20461;-59
2023/08/21 07:15:56;;;;;;;480.80;435.38;;;;;;;;;;4929538;28;20089;-56
2023/08/21 07:18:21;;;;;;;475.73;429.30;;;;;;;;;;4929122;28;20068;-58
2023/08/21 07:20:46;;;;;;;475.53;430.07;;;;;;;;;;4929843;28;20389;-57
2023/08/21 07:23:12;;;;;;;456.90;404.70;;;;;;;;;;4930245;28;20088;-57
2023/08/21 07:25:37;;;;;;;506.33;459.40;;;;;;;;;;4927909;28;20442;-56
2023/08/21 07:28:02;;;;;;;446.10;403.00;;;;;;;;;;4930008;28;20027;-55
2023/08/21 07:30:28;;;;;;;497.65;447.63;;;;;;;;;;4927906;28;20039;-55
2023/08/21 07:32:53;;;;;;;507.05;458.92;;;;;;;;;;4930097;28;20491;-56
2023/08/21 07:35:19;;;;;;;455.23;407.07;;;;;;;;;;4927865;28;20047;-57
2023/08/21 07:37:44;;;;;;;584.67;527.92;;;;;;;;;;4931925;28;20038;-57
2023/08/21 07:40:10;;;;;;;437.25;393.90;;;;;;;;;;4927582;28;20438;-56
2023/08/21 07:42:35;;;;;;;448.73;406.10;;;;;;;;;;4932045;28;20026;-58
2023/08/21 07:45:00;;;;;;;456.63;412.73;;;;;;;;;;4930250;28;20043;-56
2023/08/21 07:47:29;;;;;;;405.83;365.97;;;;;;;;;;4929524;28;20355;-57
2023/08/21 07:49:55;;;;;;;454.67;409.77;;;;;;;;;;4929721;28;20063;-56
2023/08/21 07:52:20;;;;;;;481.42;431.00;;;;;;;;;;4929634;28;20091;-57
2023/08/21 07:54:46;;;;;;;493.37;441.37;;;;;;;;;;4930358;28;20028;-57
2023/08/21 07:57:11;;;;;;;419.27;362.87;;;;;;;;;;4929932;28;20561;-56
2023/08/21 07:59:36;;;;;;;445.40;401.08;;;;;;;;;;4927297;28;20370;-57
2023/08/21 08:02:02;;;;;;;511.60;461.13;;;;;;;;;;4928578;28;20040;-56
2023/08/21 08:04:28;;;;;;;421.63;380.05;;;;;;;;;;4929789;28;20027;-56
2023/08/21 08:06:53;;;;;;;429.43;384.20;;;;;;;;;;4928286;28;20074;-56
2023/08/21 08:09:19;;;;;;;466.85;362.38;;;;;;;;;;4928289;28;20657;-56
2023/08/21 08:11:44;;;;;;;515.92;458.23;;;;;;;;;;4928019;28;20032;-55
2023/08/21 08:14:09;;;;;;;436.23;392.33;;;;;;;;;;4928775;28;20023;-55
2023/08/21 08:16:34;;;;;;;458.93;411.27;;;;;;;;;;4927762;28;20031;-58
2023/08/21 08:19:00;;;;;;;509.70;457.37;;;;;;;;;;4931170;28;20031;-57
2023/08/21 08:21:25;;;;;;;421.20;383.07;;;;;;;;;;4926778;28;20067;-56
2023/08/21 08:23:50;;;;;;;432.52;388.00;;;;;;;;;;4929243;28;21202;-56
2023/08/21 08:26:16;;;;;;;469.20;419.93;;;;;;;;;;4927706;28;20039;-57
2023/08/21 08:28:42;;;;;;;478.00;430.88;;;;;;;;;;4929283;28;20260;-57
2023/08/21 08:31:13;;;;;;;489.67;435.52;;;;;;;;;;4926433;28;20307;-59
2023/08/21 08:33:39;;;;;;;523.65;476.70;;;;;;;;;;4929784;28;20019;-56
2023/08/21 08:36:04;;;;;;;474.33;430.80;;;;;;;;;;4929293;28;20047;-57
2023/08/21 08:38:29;;;;;;;607.78;524.83;;;;;;;;;;4928575;28;20555;-56
2023/08/21 08:40:55;;;;;;;434.13;392.87;;;;;;;;;;4928314;28;20051;-57
2023/08/21 08:43:21;;;;;;;525.72;468.92;;;;;;;;;;4929715;28;20032;-55
2023/08/21 08:45:47;;;;;;;532.17;474.33;;;;;;;;;;4929700;28;20098;-56
2023/08/21 08:48:12;;;;;;;490.00;439.88;;;;;;;;;;4926475;28;20706;-56
2023/08/21 08:50:38;;;;;;;533.05;474.50;;;;;;;;;;4928416;28;20038;-56
2023/08/21 08:53:04;;;;;;;473.58;421.35;;;;;;;;;;4930218;28;20032;-57
2023/08/21 08:55:29;;;;;;;388.02;351.83;;;;;;;;;;4928196;28;20043;-55
2023/08/21 08:57:55;;;;;;;585.00;505.00;;;;;;;;;;4929648;28;20022;-56
2023/08/21 09:00:21;;;;;;;534.30;476.92;;;;;;;;;;4930549;28;20022;-55
2023/08/21 09:02:47;;;;;;;673.42;564.47;;;;;;;;;;4932056;28;20637;-59
2023/08/21 09:05:12;;;;;;;450.37;403.60;;;;;;;;;;4932417;28;20034;-57
2023/08/21 09:07:38;;;;;;;432.30;393.80;;;;;;;;;;4929623;28;20028;-55
2023/08/21 09:10:03;;;;;;;488.42;435.60;;;;;;;;;;4933512;28;20372;-57
2023/08/21 09:12:31;;;;;;;542.05;349.77;;;;;;;;;;4928657;28;20035;-56
2023/08/21 09:14:58;;;;;;;480.38;436.35;;;;;;;;;;4939197;28;20035;-56
2023/08/21 09:17:23;;;;;;;475.10;422.65;;;;;;;;;;4930252;28;20046;-56
2023/08/21 09:19:48;;;;;;;585.77;524.57;;;;;;;;;;4931962;28;20035;-57
2023/08/21 09:22:14;;;;;;;617.03;510.50;;;;;;;;;;4930046;28;20278;-58
2023/08/21 09:24:40;;;;;;;486.58;433.95;;;;;;;;;;4930017;28;20054;-57
2023/08/21 09:27:15;;;;;;;474.05;426.88;;;;;;;;;;4934707;28;20267;-56
2023/08/21 09:29:41;;;;;;;463.40;416.30;;;;;;;;;;4930293;28;20020;-56
2023/08/21 09:32:06;;;;;;;534.45;478.58;;;;;;;;;;4931731;28;20042;-55
2023/08/21 09:34:38;;;;;;;454.20;407.65;;;;;;;;;;4931473;28;20437;-55
2023/08/21 09:37:07;;;;;;;503.65;452.40;;;;;;;;;;4931288;28;20059;-55
2023/08/21 09:39:33;;;;;;;451.30;406.73;;;;;;;;;;4930735;28;20019;-56
2023/08/21 09:41:59;;;;;;;504.02;452.67;;;;;;;;;;4929451;28;20407;-56
2023/08/21 09:44:24;;;;;;;543.70;337.58;;;;;;;;;;4930596;28;20572;-57
2023/08/21 09:46:50;;;;;;;600.15;507.50;;;;;;;;;;4931319;28;20269;-57
2023/08/21 09:49:17;;;;;;;448.80;355.25;;;;;;;;;;4928296;28;20047;-56
2023/08/21 09:51:44;;;;;;;481.98;432.10;;;;;;;;;;4929928;28;20043;-57
2023/08/21 09:54:10;;;;;;;662.85;593.97;;;;;;;;;;4931145;28;20031;-57
2023/08/21 09:56:36;;;;;;;568.20;506.30;;;;;;;;;;4931022;28;20023;-58
2023/08/21 09:59:02;;;;;;;785.70;580.78;;;;;;;;;;4931946;28;20042;-58
2023/08/21 10:01:27;;;;;;;690.25;585.38;;;;;;;;;;4929723;28;20039;-56
2023/08/21 10:03:55;;;;;;;453.25;407.48;;;;;;;;;;4932762;28;20030;-58
2023/08/21 10:06:21;;;;;;;472.85;418.35;;;;;;;;;;4928297;28;20060;-57
2023/08/21 10:08:48;;;;;;;635.63;462.13;;;;;;;;;;4932298;28;20115;-57
2023/08/21 10:11:14;;;;;;;409.55;368.90;;;;;;;;;;4931358;28;20220;-58
2023/08/21 10:13:39;;;;;;;578.30;508.92;;;;;;;;;;4932970;28;20034;-58
2023/08/21 10:16:05;;;;;;;416.27;373.90;;;;;;;;;;4931161;28;20031;-58
2023/08/21 10:18:31;;;;;;;494.00;435.20;;;;;;;;;;4932500;28;21011;-56
2023/08/21 10:20:56;;;;;;;491.00;432.57;;;;;;;;;;4931044;28;20039;-58
2023/08/21 10:23:28;;;;;;;559.03;471.57;;;;;;;;;;4930571;28;20156;-57
2023/08/21 10:25:58;;;;;;;414.77;376.08;;;;;;;;;;4932067;28;20274;-59
2023/08/21 10:28:23;;;;;;;739.70;462.17;;;;;;;;;;4929635;28;20037;-57
2023/08/21 10:30:49;;;;;;;771.00;522.25;;;;;;;;;;4930466;28;20036;-58
2023/08/21 10:33:14;;;;;;;653.70;525.35;;;;;;;;;;4928275;28;20027;-57
2023/08/21 10:35:39;;;;;;;500.27;441.47;;;;;;;;;;4929979;28;20027;-59
2023/08/21 10:38:07;;;;;;;472.17;420.63;;;;;;;;;;4933355;28;20437;-59
2023/08/21 10:40:33;;;;;;;556.28;481.80;;;;;;;;;;4928056;28;20274;-56
2023/08/21 10:42:59;;;;;;;633.45;559.55;;;;;;;;;;4929634;28;20146;-57
2023/08/21 10:45:24;;;;;;;428.92;378.63;;;;;;;;;;4930841;28;20649;-56
2023/08/21 10:47:50;;;;;;;515.83;463.40;;;;;;;;;;4929409;28;20437;-58
2023/08/21 10:50:15;;;;;;;526.20;455.05;;;;;;;;;;4927937;28;20384;-57
2023/08/21 10:52:42;;;;;;;471.33;425.35;;;;;;;;;;4929203;28;20023;-58
2023/08/21 10:55:11;;;;;;;638.25;577.83;;;;;;;;;;4929538;28;20023;-57
2023/08/21 10:57:36;;;;;;;438.25;392.02;;;;;;;;;;4928152;28;20012;-56
2023/08/21 11:00:11;;;;;;;410.67;369.97;;;;;;;;;;4930051;28;20564;-57
2023/08/21 11:02:37;;;;;;;489.50;440.83;;;;;;;;;;4928860;28;20276;-56
2023/08/21 11:05:03;;;;;;;508.15;458.67;;;;;;;;;;4930092;28;20532;-56
2023/08/21 11:07:29;;;;;;;652.92;559.85;;;;;;;;;;4927408;28;20031;-56
2023/08/21 11:09:54;;;;;;;426.60;380.38;;;;;;;;;;4930746;28;20027;-56
2023/08/21 11:12:20;;;;;;;635.33;566.87;;;;;;;;;;4927848;28;20028;-56
2023/08/21 11:14:46;;;;;;;391.58;349.40;;;;;;;;;;4930463;28;20864;-59
2023/08/21 11:17:12;;;;;;;648.77;578.43;;;;;;;;;;4929430;28;20031;-58
2023/08/21 11:19:37;;;;;;;399.48;357.48;;;;;;;;;;4928265;28;20094;-57
2023/08/21 11:22:06;;;;;;;449.13;401.13;;;;;;;;;;4926660;28;20039;-58
2023/08/21 11:24:37;;;;;;;557.88;474.17;;;;;;;;;;4928538;28;20425;-57
2023/08/21 11:27:04;;;;;;;515.25;465.13;;;;;;;;;;4929785;28;20047;-56
2023/08/21 11:29:30;;;;;;;817.28;591.30;;;;;;;;;;4925564;28;20027;-57
2023/08/21 11:31:55;;;;;;;456.35;412.90;;;;;;;;;;4929438;28;20101;-58
2023/08/21 11:34:21;;;;;;;474.60;384.17;;;;;;;;;;4929021;28;20027;-58
2023/08/21 11:36:46;;;;;;;450.48;406.02;;;;;;;;;;4929007;28;20168;-57
2023/08/21 11:39:12;;;;;;;506.15;453.92;;;;;;;;;;4932240;28;20032;-59
2023/08/21 11:41:56;;;;;;;460.77;413.88;;;;;;;;;;4928382;28;20118;-57
2023/08/21 11:44:22;;;;;;;452.65;380.85;;;;;;;;;;4930680;28;20650;-57
2023/08/21 11:46:47;;;;;;;534.60;478.60;;;;;;;;;;4929173;28;20554;-59
2023/08/21 11:49:12;;;;;;;553.13;494.73;;;;;;;;;;4931722;28;20033;-58
2023/08/21 11:51:40;;;;;;;460.70;412.20;;;;;;;;;;4929960;28;20035;-56
2023/08/21 11:54:05;;;;;;;479.75;429.80;;;;;;;;;;4929675;28;20378;-59
2023/08/21 11:56:31;;;;;;;553.30;494.43;;;;;;;;;;4929423;28;20035;-57
2023/08/21 11:58:58;;;;;;;500.30;451.20;;;;;;;;;;4930010;28;20252;-58
2023/08/21 12:01:23;;;;;;;632.38;564.47;;;;;;;;;;4926856;28;20271;-57
2023/08/21 12:03:54;;;;;;;431.63;388.23;;;;;;;;;;4927483;28;20039;-58
2023/08/21 12:06:21;;;;;;;460.27;412.50;;;;;;;;;;4927555;28;20394;-58
2023/08/21 12:08:47;;;;;;;456.20;408.60;;;;;;;;;;4928951;28;20023;-57
2023/08/21 12:11:12;;;;;;;440.40;394.83;;;;;;;;;;4929559;28;20035;-56
2023/08/21 12:13:37;;;;;;;562.03;507.38;;;;;;;;;;4926071;28;20129;-56
2023/08/21 12:16:03;;;;;;;502.80;448.30;;;;;;;;;;4925926;28;20087;-58
2023/08/21 12:18:28;;;;;;;459.75;394.35;;;;;;;;;;4926298;28;20027;-58
2023/08/21 12:20:53;;;;;;;534.13;477.20;;;;;;;;;;4929245;28;20086;-59
2023/08/21 12:23:19;;;;;;;461.73;414.13;;;;;;;;;;4928736;28;20774;-58
2023/08/21 12:25:44;;;;;;;414.10;371.97;;;;;;;;;;4928723;28;20359;-56
2023/08/21 12:28:09;;;;;;;420.35;378.58;;;;;;;;;;4929227;28;20058;-57
2023/08/21 12:30:35;;;;;;;537.27;480.50;;;;;;;;;;4926640;28;20035;-58
2023/08/21 12:33:00;;;;;;;492.45;446.10;;;;;;;;;;4938990;28;20034;-57
2023/08/21 12:35:25;;;;;;;518.20;444.23;;;;;;;;;;4931959;28;20516;-56
2023/08/21 12:37:50;;;;;;;469.87;422.30;;;;;;;;;;4932027;28;20065;-58
2023/08/21 12:40:16;;;;;;;444.33;399.93;;;;;;;;;;4931728;28;20802;-56
2023/08/21 12:42:41;;;;;;;458.90;412.10;;;;;;;;;;4932589;28;20015;-59
2023/08/21 12:45:07;;;;;;;554.33;501.37;;;;;;;;;;4932664;28;20066;-58
2023/08/21 12:47:33;;;;;;;509.27;454.92;;;;;;;;;;4931021;28;20042;-57
2023/08/21 12:49:58;;;;;;;478.38;431.08;;;;;;;;;;4935403;28;20299;-56
2023/08/21 12:52:23;;;;;;;514.33;462.80;;;;;;;;;;4929040;28;20042;-57
2023/08/21 12:54:48;;;;;;;489.50;441.13;;;;;;;;;;4931757;28;20556;-57
2023/08/21 12:57:14;;;;;;;470.63;424.05;;;;;;;;;;4934255;28;20038;-57
2023/08/21 12:59:39;;;;;;;464.03;414.60;;;;;;;;;;4931493;28;20024;-56
2023/08/21 13:02:04;;;;;;;504.47;452.13;;;;;;;;;;4931283;28;20054;-56
2023/08/21 13:04:29;;;;;;;541.53;484.87;;;;;;;;;;4935679;28;20561;-56
2023/08/21 13:06:55;;;;;;;536.70;483.02;;;;;;;;;;4931576;28;20453;-57
2023/08/21 13:09:20;;;;;;;502.20;451.57;;;;;;;;;;4933584;28;20024;-57
2023/08/21 13:11:45;;;;;;;643.93;523.20;;;;;;;;;;4930753;28;20271;-57
2023/08/21 13:14:10;;;;;;;438.77;391.80;;;;;;;;;;4934476;28;20016;-57
2023/08/21 13:16:36;;;;;;;510.13;456.40;;;;;;;;;;4931546;28;20043;-58
2023/08/21 13:19:01;;;;;;;385.30;347.37;;;;;;;;;;4932365;28;20027;-57
2023/08/21 13:21:26;;;;;;;472.73;370.93;;;;;;;;;;4932616;28;20047;-57
2023/08/21 13:23:52;;;;;;;501.63;450.23;;;;;;;;;;4932312;28;20032;-58
2023/08/21 13:26:17;;;;;;;432.45;389.52;;;;;;;;;;4930750;28;20054;-58
2023/08/21 13:28:42;;;;;;;446.53;400.33;;;;;;;;;;4932341;28;20034;-57
2023/08/21 13:31:08;;;;;;;472.80;425.17;;;;;;;;;;4933112;28;21782;-58
2023/08/21 13:33:44;;;;;;;446.40;397.50;;;;;;;;;;4931757;28;20035;-59
2023/08/21 13:36:09;;;;;;;457.85;408.75;;;;;;;;;;4931184;28;20040;-58
2023/08/21 13:38:34;;;;;;;512.60;450.23;;;;;;;;;;4932638;28;20028;-60
2023/08/21 13:40:59;;;;;;;518.27;466.73;;;;;;;;;;4931560;28;20750;-57
2023/08/21 13:43:24;;;;;;;390.27;347.50;;;;;;;;;;4929580;28;20398;-56